sensor_id;sensor_type;location;lat;lon;timestamp;pressure;altitude;pressure_sealevel;temperature;humidity
53900;BME280;40509;32.858;-116.858;2023-02-22T00:01:34;97363.69;;;19.08;44.11
53900;BME280;40509;32.858;-116.858;2023-02-22T00:04:03;97362.84;;;19.07;44.07
53900;BME280;40509;32.858;-116.858;2023-02-22T00:06:30;97364.78;;;19.05;44.49
53900;BME280;40509;32.858;-116.858;2023-02-22T00:08:59;97351.72;;;19.05;44.15
53900;BME280;40509;32.858;-116.858;2023-02-22T00:11:28;97359.41;;;19.07;44.30
53900;BME280;40509;32.858;-116.858;2023-02-22T00:13:57;97351.72;;;19.05;44.26
53900;BME280;40509;32.858;-116.858;2023-02-22T00:16:25;97349.09;;;19.05;44.14
53900;BME280;40509;32.858;-116.858;2023-02-22T00:18:52;97345.66;;;19.04;44.29
53900;BME280;40509;32.858;-116.858;2023-02-22T00:21:21;97338.63;;;19.05;44.03
53900;BME280;40509;32.858;-116.858;2023-02-22T00:23:49;97344.97;;;19.02;44.08
53900;BME280;40509;32.858;-116.858;2023-02-22T00:26:19;97347.44;;;19.04;44.22
53900;BME280;40509;32.858;-116.858;2023-02-22T00:28:51;97331.91;;;19.02;44.20
53900;BME280;40509;32.858;-116.858;2023-02-22T00:31:20;97335.47;;;19.01;44.27
53900;BME280;40509;32.858;-116.858;2023-02-22T00:33:49;97329.59;;;18.99;44.58
53900;BME280;40509;32.858;-116.858;2023-02-22T00:36:17;97341.03;;;18.98;44.82
53900;BME280;40509;32.858;-116.858;2023-02-22T00:38:44;97344.38;;;18.91;44.83
53900;BME280;40509;32.858;-116.858;2023-02-22T00:41:11;97354.69;;;18.92;44.91
53900;BME280;40509;32.858;-116.858;2023-02-22T00:43:38;97349.31;;;18.94;44.78
53900;BME280;40509;32.858;-116.858;2023-02-22T00:46:07;97356.19;;;18.95;44.75
53900;BME280;40509;32.858;-116.858;2023-02-22T00:48:34;97351.94;;;18.94;44.81
53900;BME280;40509;32.858;-116.858;2023-02-22T00:51:01;97354.56;;;18.94;44.77
53900;BME280;40509;32.858;-116.858;2023-02-22T00:53:29;97352.75;;;18.94;45.06
53900;BME280;40509;32.858;-116.858;2023-02-22T00:55:56;97358.28;;;18.91;45.08
53900;BME280;40509;32.858;-116.858;2023-02-22T00:58:24;97342.75;;;18.90;44.80
53900;BME280;40509;32.858;-116.858;2023-02-22T01:00:52;97345.38;;;18.90;45.13
53900;BME280;40509;32.858;-116.858;2023-02-22T01:03:20;97348.94;;;18.89;45.20
53900;BME280;40509;32.858;-116.858;2023-02-22T01:05:47;97348.22;;;18.86;45.23
53900;BME280;40509;32.858;-116.858;2023-02-22T01:08:15;97342.19;;;18.86;45.22
53900;BME280;40509;32.858;-116.858;2023-02-22T01:10:44;97336.53;;;18.91;45.19
53900;BME280;40509;32.858;-116.858;2023-02-22T01:13:12;97316.03;;;18.86;45.21
53900;BME280;40509;32.858;-116.858;2023-02-22T01:15:41;97319.22;;;18.80;45.49
53900;BME280;40509;32.858;-116.858;2023-02-22T01:18:10;97318.09;;;18.82;45.38
53900;BME280;40509;32.858;-116.858;2023-02-22T01:20:38;97313.19;;;18.79;45.35
53900;BME280;40509;32.858;-116.858;2023-02-22T01:23:07;97317.72;;;18.77;45.45
53900;BME280;40509;32.858;-116.858;2023-02-22T01:25:36;97319.22;;;18.80;45.64
53900;BME280;40509;32.858;-116.858;2023-02-22T01:28:06;97322.00;;;18.78;45.59
53900;BME280;40509;32.858;-116.858;2023-02-22T01:30:34;97321.03;;;18.79;45.69
53900;BME280;40509;32.858;-116.858;2023-02-22T01:33:04;97325.56;;;18.77;45.58
53900;BME280;40509;32.858;-116.858;2023-02-22T01:35:36;97334.56;;;18.75;45.46
53900;BME280;40509;32.858;-116.858;2023-02-22T01:38:07;97336.34;;;18.74;45.56
53900;BME280;40509;32.858;-116.858;2023-02-22T01:40:39;97325.88;;;18.74;45.97
53900;BME280;40509;32.858;-116.858;2023-02-22T01:43:29;97323.41;;;18.73;46.08
53900;BME280;40509;32.858;-116.858;2023-02-22T01:46:02;97324.22;;;18.73;45.58
53900;BME280;40509;32.858;-116.858;2023-02-22T01:53:40;97291.34;;;18.70;45.93
53900;BME280;40509;32.858;-116.858;2023-02-22T01:56:09;97288.75;;;18.70;45.71
53900;BME280;40509;32.858;-116.858;2023-02-22T01:58:41;97296.06;;;18.67;46.04
53900;BME280;40509;32.858;-116.858;2023-02-22T02:01:10;97299.34;;;18.69;45.95
53900;BME280;40509;32.858;-116.858;2023-02-22T02:03:39;97301.97;;;18.69;46.12
53900;BME280;40509;32.858;-116.858;2023-02-22T02:06:12;97291.81;;;18.66;45.98
53900;BME280;40509;32.858;-116.858;2023-02-22T02:08:49;97283.16;;;18.65;46.10
53900;BME280;40509;32.858;-116.858;2023-02-22T02:11:23;97272.69;;;18.65;45.62
53900;BME280;40509;32.858;-116.858;2023-02-22T02:13:59;97283.31;;;18.64;45.87
53900;BME280;40509;32.858;-116.858;2023-02-22T02:16:47;97284.94;;;18.65;45.55
53900;BME280;40509;32.858;-116.858;2023-02-22T02:22:12;97280.00;;;18.62;45.81
53900;BME280;40509;32.858;-116.858;2023-02-22T02:27:21;97265.28;;;18.61;45.85
53900;BME280;40509;32.858;-116.858;2023-02-22T02:30:55;97267.25;;;18.59;46.06
53900;BME280;40509;32.858;-116.858;2023-02-22T02:41:02;97272.63;;;18.57;46.03
53900;BME280;40509;32.858;-116.858;2023-02-22T02:47:13;97274.84;;;18.52;46.15
53900;BME280;40509;32.858;-116.858;2023-02-22T02:49:50;97277.00;;;18.57;46.19
53900;BME280;40509;32.858;-116.858;2023-02-22T02:52:23;97267.16;;;18.50;46.01
53900;BME280;40509;32.858;-116.858;2023-02-22T02:54:52;97273.75;;;18.54;46.03
53900;BME280;40509;32.858;-116.858;2023-02-22T02:57:22;97270.59;;;18.51;45.88
53900;BME280;40509;32.858;-116.858;2023-02-22T02:59:50;97261.78;;;18.52;46.26
53900;BME280;40509;32.858;-116.858;2023-02-22T03:05:06;97253.25;;;18.50;45.96
53900;BME280;40509;32.858;-116.858;2023-02-22T03:07:48;97259.47;;;18.49;45.95
53900;BME280;40509;32.858;-116.858;2023-02-22T03:10:44;97260.28;;;18.49;46.10
53900;BME280;40509;32.858;-116.858;2023-02-22T03:16:16;97255.22;;;18.48;45.85
53900;BME280;40509;32.858;-116.858;2023-02-22T03:18:58;97251.63;;;18.49;45.81
53900;BME280;40509;32.858;-116.858;2023-02-22T03:26:54;97243.56;;;18.42;46.19
53900;BME280;40509;32.858;-116.858;2023-02-22T03:29:25;97234.72;;;18.43;45.86
53900;BME280;40509;32.858;-116.858;2023-02-22T03:31:58;97230.63;;;18.41;46.25
53900;BME280;40509;32.858;-116.858;2023-02-22T03:34:36;97235.19;;;18.39;46.18
53900;BME280;40509;32.858;-116.858;2023-02-22T03:37:28;97227.34;;;18.39;45.99
53900;BME280;40509;32.858;-116.858;2023-02-22T03:40:01;97229.81;;;18.40;46.33
53900;BME280;40509;32.858;-116.858;2023-02-22T03:42:44;97234.22;;;18.40;46.26
53900;BME280;40509;32.858;-116.858;2023-02-22T03:45:15;97235.03;;;18.40;45.90
53900;BME280;40509;32.858;-116.858;2023-02-22T03:47:47;97232.72;;;18.37;46.09
53900;BME280;40509;32.858;-116.858;2023-02-22T03:50:26;97232.03;;;18.35;46.08
53900;BME280;40509;32.858;-116.858;2023-02-22T03:52:56;97228.47;;;18.36;45.65
53900;BME280;40509;32.858;-116.858;2023-02-22T03:55:28;97200.53;;;18.36;45.71
53900;BME280;40509;32.858;-116.858;2023-02-22T03:57:58;97205.91;;;18.35;45.96
53900;BME280;40509;32.858;-116.858;2023-02-22T04:00:31;97211.13;;;18.35;45.67
53900;BME280;40509;32.858;-116.858;2023-02-22T04:03:00;97213.91;;;18.33;46.00
53900;BME280;40509;32.858;-116.858;2023-02-22T04:05:28;97211.13;;;18.35;45.53
53900;BME280;40509;32.858;-116.858;2023-02-22T04:07:57;97198.38;;;18.32;45.50
53900;BME280;40509;32.858;-116.858;2023-02-22T04:10:26;97206.06;;;18.33;45.79
53900;BME280;40509;32.858;-116.858;2023-02-22T04:12:53;97205.41;;;18.31;45.91
53900;BME280;40509;32.858;-116.858;2023-02-22T04:15:23;97200.28;;;18.30;45.71
53900;BME280;40509;32.858;-116.858;2023-02-22T04:17:54;97204.56;;;18.31;45.60
53900;BME280;40509;32.858;-116.858;2023-02-22T04:20:22;97204.88;;;18.28;45.81
53900;BME280;40509;32.858;-116.858;2023-02-22T04:22:55;97203.22;;;18.27;45.73
53900;BME280;40509;32.858;-116.858;2023-02-22T04:25:23;97201.88;;;18.23;45.78
53900;BME280;40509;32.858;-116.858;2023-02-22T04:27:52;97193.06;;;18.24;45.90
53900;BME280;40509;32.858;-116.858;2023-02-22T04:30:25;97199.56;;;18.19;46.24
53900;BME280;40509;32.858;-116.858;2023-02-22T04:32:55;97193.66;;;18.17;46.03
53900;BME280;40509;32.858;-116.858;2023-02-22T04:35:23;97196.94;;;18.19;45.92
53900;BME280;40509;32.858;-116.858;2023-02-22T04:37:50;97195.97;;;18.20;45.81
53900;BME280;40509;32.858;-116.858;2023-02-22T04:40:20;97193.50;;;18.19;46.10
53900;BME280;40509;32.858;-116.858;2023-02-22T04:42:47;97200.53;;;18.18;46.06
53900;BME280;40509;32.858;-116.858;2023-02-22T04:45:15;97186.25;;;18.13;45.79
53900;BME280;40509;32.858;-116.858;2023-02-22T04:47:43;97179.94;;;18.15;46.17
53900;BME280;40509;32.858;-116.858;2023-02-22T04:50:11;97184.31;;;18.15;45.87
53900;BME280;40509;32.858;-116.858;2023-02-22T04:52:39;97189.41;;;18.16;45.96
53900;BME280;40509;32.858;-116.858;2023-02-22T04:55:07;97197.25;;;18.16;45.47
53900;BME280;40509;32.858;-116.858;2023-02-22T04:57:35;97198.06;;;18.17;45.97
53900;BME280;40509;32.858;-116.858;2023-02-22T05:00:04;97206.03;;;18.15;46.14
53900;BME280;40509;32.858;-116.858;2023-02-22T05:02:33;97216.50;;;18.15;45.94
53900;BME280;40509;32.858;-116.858;2023-02-22T05:05:00;97209.91;;;18.11;46.29
53900;BME280;40509;32.858;-116.858;2023-02-22T05:07:27;97212.84;;;18.08;46.24
53900;BME280;40509;32.858;-116.858;2023-02-22T05:09:55;97213.09;;;18.05;46.29
53900;BME280;40509;32.858;-116.858;2023-02-22T05:12:22;97213.25;;;18.03;46.52
53900;BME280;40509;32.858;-116.858;2023-02-22T05:14:50;97209.97;;;18.01;46.61
53900;BME280;40509;32.858;-116.858;2023-02-22T05:17:17;97216.16;;;18.00;46.58
53900;BME280;40509;32.858;-116.858;2023-02-22T05:19:45;97218.25;;;17.97;46.67
53900;BME280;40509;32.858;-116.858;2023-02-22T05:22:13;97232.94;;;17.98;46.80
53900;BME280;40509;32.858;-116.858;2023-02-22T05:24:40;97231.97;;;17.99;46.85
53900;BME280;40509;32.858;-116.858;2023-02-22T05:27:09;97222.19;;;18.01;46.50
53900;BME280;40509;32.858;-116.858;2023-02-22T05:29:37;97219.88;;;17.98;46.68
53900;BME280;40509;32.858;-116.858;2023-02-22T05:32:05;97232.25;;;17.96;46.71
53900;BME280;40509;32.858;-116.858;2023-02-22T05:34:32;97234.75;;;17.97;46.53
53900;BME280;40509;32.858;-116.858;2023-02-22T05:36:59;97237.47;;;17.96;46.60
53900;BME280;40509;32.858;-116.858;2023-02-22T05:39:28;97238.81;;;18.00;46.64
53900;BME280;40509;32.858;-116.858;2023-02-22T05:41:56;97232.56;;;17.93;46.53
53900;BME280;40509;32.858;-116.858;2023-02-22T05:44:24;97245.47;;;17.94;46.82
53900;BME280;40509;32.858;-116.858;2023-02-22T05:46:51;97250.03;;;17.92;46.69
53900;BME280;40509;32.858;-116.858;2023-02-22T05:49:18;97242.69;;;17.96;46.76
53900;BME280;40509;32.858;-116.858;2023-02-22T05:51:45;97239.56;;;17.92;46.63
53900;BME280;40509;32.858;-116.858;2023-02-22T05:54:13;97226.38;;;17.94;46.67
53900;BME280;40509;32.858;-116.858;2023-02-22T05:56:40;97225.94;;;17.89;46.88
53900;BME280;40509;32.858;-116.858;2023-02-22T05:59:08;97238.03;;;17.90;46.77
53900;BME280;40509;32.858;-116.858;2023-02-22T06:01:35;97249.28;;;17.90;46.75
53900;BME280;40509;32.858;-116.858;2023-02-22T06:04:02;97240.66;;;17.90;46.73
53900;BME280;40509;32.858;-116.858;2023-02-22T06:06:30;97245.47;;;17.84;46.80
53900;BME280;40509;32.858;-116.858;2023-02-22T06:08:57;97246.28;;;17.85;46.69
53900;BME280;40509;32.858;-116.858;2023-02-22T06:11:24;97241.38;;;17.82;47.02
53900;BME280;40509;32.858;-116.858;2023-02-22T06:13:52;97246.16;;;17.86;46.74
53900;BME280;40509;32.858;-116.858;2023-02-22T06:16:20;97240.25;;;17.84;46.65
53900;BME280;40509;32.858;-116.858;2023-02-22T06:18:48;97229.97;;;17.83;46.77
53900;BME280;40509;32.858;-116.858;2023-02-22T06:21:15;97237.66;;;17.84;46.40
53900;BME280;40509;32.858;-116.858;2023-02-22T06:23:43;97225.06;;;17.70;46.57
53900;BME280;40509;32.858;-116.858;2023-02-22T06:26:10;97220.78;;;17.79;46.55
53900;BME280;40509;32.858;-116.858;2023-02-22T06:28:37;97229.81;;;17.84;46.59
53900;BME280;40509;32.858;-116.858;2023-02-22T06:31:04;97246.56;;;17.92;46.28
53900;BME280;40509;32.858;-116.858;2023-02-22T06:33:32;97236.69;;;17.85;46.50
53900;BME280;40509;32.858;-116.858;2023-02-22T06:35:59;97234.06;;;17.85;46.39
53900;BME280;40509;32.858;-116.858;2023-02-22T06:38:26;97237.53;;;17.76;46.72
53900;BME280;40509;32.858;-116.858;2023-02-22T06:40:54;97259.25;;;17.77;46.70
53900;BME280;40509;32.858;-116.858;2023-02-22T06:43:22;97255.00;;;17.76;46.67
53900;BME280;40509;32.858;-116.858;2023-02-22T06:45:51;97240.69;;;17.80;46.41
53900;BME280;40509;32.858;-116.858;2023-02-22T06:48:18;97243.88;;;17.74;46.50
53900;BME280;40509;32.858;-116.858;2023-02-22T06:50:46;97236.34;;;17.70;46.50
53900;BME280;40509;32.858;-116.858;2023-02-22T06:53:13;97227.53;;;17.72;46.62
53900;BME280;40509;32.858;-116.858;2023-02-22T06:55:40;97229.31;;;17.71;46.52
53900;BME280;40509;32.858;-116.858;2023-02-22T06:58:08;97233.88;;;17.69;46.54
53900;BME280;40509;32.858;-116.858;2023-02-22T07:00:35;97242.50;;;17.69;46.64
53900;BME280;40509;32.858;-116.858;2023-02-22T07:03:03;97245.66;;;17.73;46.36
53900;BME280;40509;32.858;-116.858;2023-02-22T07:05:30;97251.56;;;17.75;46.23
53900;BME280;40509;32.858;-116.858;2023-02-22T07:08:03;97246.63;;;17.72;46.23
53900;BME280;40509;32.858;-116.858;2023-02-22T07:10:33;97240.88;;;17.68;46.19
53900;BME280;40509;32.858;-116.858;2023-02-22T07:13:01;97239.34;;;17.66;46.40
53900;BME280;40509;32.858;-116.858;2023-02-22T07:15:29;97234.84;;;17.68;46.23
53900;BME280;40509;32.858;-116.858;2023-02-22T07:17:58;97227.97;;;17.67;46.37
53900;BME280;40509;32.858;-116.858;2023-02-22T07:20:29;97228.50;;;17.70;46.32
53900;BME280;40509;32.858;-116.858;2023-02-22T07:22:57;97217.38;;;17.68;46.35
53900;BME280;40509;32.858;-116.858;2023-02-22T07:25:24;97215.88;;;17.66;46.00
53900;BME280;40509;32.858;-116.858;2023-02-22T07:27:52;97211.09;;;17.61;46.45
53900;BME280;40509;32.858;-116.858;2023-02-22T07:32:52;97213.31;;;17.56;46.57
53900;BME280;40509;32.858;-116.858;2023-02-22T07:35:29;97214.25;;;17.55;46.48
53900;BME280;40509;32.858;-116.858;2023-02-22T07:37:56;97211.25;;;17.60;46.13
53900;BME280;40509;32.858;-116.858;2023-02-22T07:40:25;97219.22;;;17.58;45.62
53900;BME280;40509;32.858;-116.858;2023-02-22T07:45:32;97210.69;;;17.56;46.05
53900;BME280;40509;32.858;-116.858;2023-02-22T07:48:03;97210.41;;;17.59;45.84
53900;BME280;40509;32.858;-116.858;2023-02-22T07:50:32;97210.53;;;17.58;45.81
53900;BME280;40509;32.858;-116.858;2023-02-22T07:53:03;97214.41;;;17.53;45.28
53900;BME280;40509;32.858;-116.858;2023-02-22T07:55:32;97199.16;;;17.59;45.64
53900;BME280;40509;32.858;-116.858;2023-02-22T07:58:02;97188.47;;;17.52;45.31
53900;BME280;40509;32.858;-116.858;2023-02-22T08:00:32;97178.84;;;17.52;45.50
53900;BME280;40509;32.858;-116.858;2023-02-22T08:03:01;97166.91;;;17.50;45.83
53900;BME280;40509;32.858;-116.858;2023-02-22T08:05:29;97158.66;;;17.55;45.69
53900;BME280;40509;32.858;-116.858;2023-02-22T08:07:57;97162.38;;;17.52;45.45
53900;BME280;40509;32.858;-116.858;2023-02-22T08:10:25;97159.59;;;17.53;45.65
53900;BME280;40509;32.858;-116.858;2023-02-22T08:12:53;97162.63;;;17.59;45.37
53900;BME280;40509;32.858;-116.858;2023-02-22T08:15:30;97168.41;;;17.52;45.57
53900;BME280;40509;32.858;-116.858;2023-02-22T08:17:59;97164.03;;;17.53;45.64
53900;BME280;40509;32.858;-116.858;2023-02-22T08:20:28;97154.69;;;17.50;45.58
53900;BME280;40509;32.858;-116.858;2023-02-22T08:22:56;97163.38;;;17.41;45.77
53900;BME280;40509;32.858;-116.858;2023-02-22T08:25:26;97146.47;;;17.45;45.88
53900;BME280;40509;32.858;-116.858;2023-02-22T08:28:02;97140.84;;;17.50;45.54
53900;BME280;40509;32.858;-116.858;2023-02-22T08:30:31;97132.06;;;17.41;45.59
53900;BME280;40509;32.858;-116.858;2023-02-22T08:33:01;97144.06;;;17.34;45.72
53900;BME280;40509;32.858;-116.858;2023-02-22T08:35:29;97153.13;;;17.30;45.65
53900;BME280;40509;32.858;-116.858;2023-02-22T08:38:01;97149.56;;;17.31;45.62
53900;BME280;40509;32.858;-116.858;2023-02-22T08:40:35;97150.06;;;17.34;45.60
53900;BME280;40509;32.858;-116.858;2023-02-22T08:43:03;97148.97;;;17.37;45.72
53900;BME280;40509;32.858;-116.858;2023-02-22T08:45:32;97130.16;;;17.33;45.78
53900;BME280;40509;32.858;-116.858;2023-02-22T08:47:59;97134.88;;;17.30;45.66
53900;BME280;40509;32.858;-116.858;2023-02-22T08:50:29;97140.75;;;17.32;45.54
53900;BME280;40509;32.858;-116.858;2023-02-22T08:53:00;97142.00;;;17.28;45.69
53900;BME280;40509;32.858;-116.858;2023-02-22T08:55:30;97157.25;;;17.32;45.64
53900;BME280;40509;32.858;-116.858;2023-02-22T08:57:59;97166.41;;;17.36;45.53
53900;BME280;40509;32.858;-116.858;2023-02-22T09:00:30;97167.53;;;17.34;45.41
53900;BME280;40509;32.858;-116.858;2023-02-22T09:03:02;97170.94;;;17.34;45.48
53900;BME280;40509;32.858;-116.858;2023-02-22T09:05:30;97166.69;;;17.33;45.50
53900;BME280;40509;32.858;-116.858;2023-02-22T09:07:59;97163.13;;;17.34;45.38
53900;BME280;40509;32.858;-116.858;2023-02-22T09:10:28;97162.47;;;17.32;45.36
53900;BME280;40509;32.858;-116.858;2023-02-22T09:12:56;97161.34;;;17.35;45.48
53900;BME280;40509;32.858;-116.858;2023-02-22T09:15:26;97160.66;;;17.33;45.54
53900;BME280;40509;32.858;-116.858;2023-02-22T09:17:54;97152.88;;;17.23;45.70
53900;BME280;40509;32.858;-116.858;2023-02-22T09:20:23;97141.09;;;17.19;44.88
53900;BME280;40509;32.858;-116.858;2023-02-22T09:22:51;97163.44;;;17.22;45.29
53900;BME280;40509;32.858;-116.858;2023-02-22T09:25:22;97160.44;;;17.16;45.46
53900;BME280;40509;32.858;-116.858;2023-02-22T09:27:51;97150.31;;;17.13;45.51
53900;BME280;40509;32.858;-116.858;2023-02-22T09:30:30;97145.84;;;17.24;45.47
53900;BME280;40509;32.858;-116.858;2023-02-22T09:33:04;97158.09;;;17.23;45.47
53900;BME280;40509;32.858;-116.858;2023-02-22T09:35:32;97139.97;;;17.22;45.36
53900;BME280;40509;32.858;-116.858;2023-02-22T09:38:03;97159.47;;;17.17;45.33
53900;BME280;40509;32.858;-116.858;2023-02-22T09:40:33;97165.09;;;17.13;45.36
53900;BME280;40509;32.858;-116.858;2023-02-22T09:46:11;97157.44;;;17.11;45.36
53900;BME280;40509;32.858;-116.858;2023-02-22T09:49:08;97148.09;;;17.09;45.41
53900;BME280;40509;32.858;-116.858;2023-02-22T09:51:47;97157.72;;;17.08;45.47
53900;BME280;40509;32.858;-116.858;2023-02-22T09:54:20;97147.00;;;17.11;45.28
53900;BME280;40509;32.858;-116.858;2023-02-22T09:56:54;97147.28;;;17.08;45.33
53900;BME280;40509;32.858;-116.858;2023-02-22T09:59:36;97161.97;;;17.09;45.44
53900;BME280;40509;32.858;-116.858;2023-02-22T10:02:25;97158.38;;;17.10;44.93
53900;BME280;40509;32.858;-116.858;2023-02-22T10:05:07;97162.25;;;17.06;44.92
53900;BME280;40509;32.858;-116.858;2023-02-22T10:08:00;97162.25;;;17.06;45.43
53900;BME280;40509;32.858;-116.858;2023-02-22T10:10:37;97167.31;;;17.08;45.37
53900;BME280;40509;32.858;-116.858;2023-02-22T10:16:17;97166.66;;;17.06;45.08
53900;BME280;40509;32.858;-116.858;2023-02-22T10:27:16;97158.97;;;17.04;45.20
53900;BME280;40509;32.858;-116.858;2023-02-22T10:29:56;97165.53;;;17.08;45.16
53900;BME280;40509;32.858;-116.858;2023-02-22T10:32:31;97166.94;;;17.02;45.39
53900;BME280;40509;32.858;-116.858;2023-02-22T10:35:05;97168.56;;;17.03;45.39
53900;BME280;40509;32.858;-116.858;2023-02-22T10:37:40;97166.50;;;17.07;45.24
53900;BME280;40509;32.858;-116.858;2023-02-22T10:40:14;97160.88;;;17.02;45.37
53900;BME280;40509;32.858;-116.858;2023-02-22T10:42:49;97177.91;;;16.96;45.38
53900;BME280;40509;32.858;-116.858;2023-02-22T10:45:28;97160.09;;;16.92;45.73
53900;BME280;40509;32.858;-116.858;2023-02-22T10:47:59;97157.19;;;16.95;45.28
53900;BME280;40509;32.858;-116.858;2023-02-22T10:50:36;97159.25;;;16.91;45.22
53900;BME280;40509;32.858;-116.858;2023-02-22T10:53:08;97161.06;;;16.91;45.38
53900;BME280;40509;32.858;-116.858;2023-02-22T10:59:02;97162.69;;;16.92;45.18
53900;BME280;40509;32.858;-116.858;2023-02-22T11:06:42;97163.81;;;16.89;45.35
53900;BME280;40509;32.858;-116.858;2023-02-22T11:11:42;97175.88;;;16.90;45.24
53900;BME280;40509;32.858;-116.858;2023-02-22T11:14:23;97174.59;;;16.84;45.08
53900;BME280;40509;32.858;-116.858;2023-02-22T11:16:55;97170.91;;;16.87;45.15
53900;BME280;40509;32.858;-116.858;2023-02-22T11:19:29;97162.56;;;16.83;45.01
53900;BME280;40509;32.858;-116.858;2023-02-22T11:22:22;97159.25;;;16.81;45.18
53900;BME280;40509;32.858;-116.858;2023-02-22T11:24:52;97169.94;;;16.88;45.04
53900;BME280;40509;32.858;-116.858;2023-02-22T11:27:51;97169.00;;;16.89;45.19
53900;BME280;40509;32.858;-116.858;2023-02-22T11:38:13;97171.34;;;16.73;45.13
53900;BME280;40509;32.858;-116.858;2023-02-22T11:40:42;97174.63;;;16.75;45.15
53900;BME280;40509;32.858;-116.858;2023-02-22T11:43:18;97181.63;;;16.74;45.20
53900;BME280;40509;32.858;-116.858;2023-02-22T11:46:03;97175.19;;;16.68;45.27
53900;BME280;40509;32.858;-116.858;2023-02-22T11:48:36;97165.16;;;16.74;45.21
53900;BME280;40509;32.858;-116.858;2023-02-22T11:56:35;97184.78;;;16.68;45.11
53900;BME280;40509;32.858;-116.858;2023-02-22T11:59:32;97182.88;;;16.70;45.20
53900;BME280;40509;32.858;-116.858;2023-02-22T12:11:51;97200.41;;;16.78;45.27
53900;BME280;40509;32.858;-116.858;2023-02-22T12:19:43;97205.91;;;16.65;45.36
53900;BME280;40509;32.858;-116.858;2023-02-22T12:25:17;97219.59;;;16.67;45.23
53900;BME280;40509;32.858;-116.858;2023-02-22T12:27:52;97218.50;;;16.60;45.49
53900;BME280;40509;32.858;-116.858;2023-02-22T12:30:29;97220.72;;;16.64;45.12
53900;BME280;40509;32.858;-116.858;2023-02-22T12:32:59;97216.03;;;16.68;45.25
53900;BME280;40509;32.858;-116.858;2023-02-22T12:35:35;97225.94;;;16.64;45.32
53900;BME280;40509;32.858;-116.858;2023-02-22T12:46:36;97227.56;;;16.56;45.18
53900;BME280;40509;32.858;-116.858;2023-02-22T12:49:15;97218.94;;;16.55;45.39
53900;BME280;40509;32.858;-116.858;2023-02-22T13:05:22;97254.41;;;16.46;44.94
53900;BME280;40509;32.858;-116.858;2023-02-22T13:10:43;97261.16;;;16.49;45.03
53900;BME280;40509;32.858;-116.858;2023-02-22T13:22:16;97270.59;;;16.40;44.97
53900;BME280;40509;32.858;-116.858;2023-02-22T13:27:26;97276.63;;;16.41;44.88
53900;BME280;40509;32.858;-116.858;2023-02-22T13:29:58;97278.81;;;16.45;44.74
53900;BME280;40509;32.858;-116.858;2023-02-22T13:32:51;97295.28;;;16.46;45.03
53900;BME280;40509;32.858;-116.858;2023-02-22T13:50:48;97300.63;;;16.44;44.86
53900;BME280;40509;32.858;-116.858;2023-02-22T13:53:24;97303.34;;;16.33;44.89
53900;BME280;40509;32.858;-116.858;2023-02-22T13:55:56;97307.16;;;16.29;45.14
53900;BME280;40509;32.858;-116.858;2023-02-22T13:58:24;97312.94;;;16.32;44.79
53900;BME280;40509;32.858;-116.858;2023-02-22T14:00:53;97305.41;;;16.29;45.09
53900;BME280;40509;32.858;-116.858;2023-02-22T14:03:38;97301.56;;;16.33;45.12
53900;BME280;40509;32.858;-116.858;2023-02-22T14:08:57;97297.16;;;16.34;45.09
53900;BME280;40509;32.858;-116.858;2023-02-22T14:16:30;97311.41;;;16.30;44.89
53900;BME280;40509;32.858;-116.858;2023-02-22T14:19:18;97316.63;;;16.30;44.84
53900;BME280;40509;32.858;-116.858;2023-02-22T14:22:03;97313.06;;;16.31;45.17
53900;BME280;40509;32.858;-116.858;2023-02-22T14:24:44;97313.34;;;16.28;44.94
53900;BME280;40509;32.858;-116.858;2023-02-22T14:27:13;97309.75;;;16.29;44.93
53900;BME280;40509;32.858;-116.858;2023-02-22T14:29:56;97306.47;;;16.27;44.78
53900;BME280;40509;32.858;-116.858;2023-02-22T14:32:34;97321.53;;;16.23;44.95
53900;BME280;40509;32.858;-116.858;2023-02-22T14:35:06;97323.88;;;16.26;44.88
53900;BME280;40509;32.858;-116.858;2023-02-22T14:37:40;97344.84;;;16.25;45.15
53900;BME280;40509;32.858;-116.858;2023-02-22T14:40:38;97345.81;;;16.24;44.97
53900;BME280;40509;32.858;-116.858;2023-02-22T14:43:17;97353.63;;;16.24;45.10
53900;BME280;40509;32.858;-116.858;2023-02-22T14:45:56;97351.13;;;16.22;44.65
53900;BME280;40509;32.858;-116.858;2023-02-22T14:48:34;97361.44;;;16.24;44.81
53900;BME280;40509;32.858;-116.858;2023-02-22T14:53:50;97381.84;;;16.18;44.91
53900;BME280;40509;32.858;-116.858;2023-02-22T14:59:08;97388.13;;;16.16;45.13
53900;BME280;40509;32.858;-116.858;2023-02-22T15:01:39;97385.84;;;16.23;45.03
53900;BME280;40509;32.858;-116.858;2023-02-22T15:06:48;97402.13;;;16.25;44.82
53900;BME280;40509;32.858;-116.858;2023-02-22T15:09:22;97414.47;;;16.23;44.83
53900;BME280;40509;32.858;-116.858;2023-02-22T15:11:54;97417.88;;;16.23;44.89
53900;BME280;40509;32.858;-116.858;2023-02-22T15:14:23;97412.25;;;16.18;44.86
53900;BME280;40509;32.858;-116.858;2023-02-22T15:16:56;97418.03;;;16.22;44.84
53900;BME280;40509;32.858;-116.858;2023-02-22T15:19:28;97428.72;;;16.18;44.98
53900;BME280;40509;32.858;-116.858;2023-02-22T15:21:57;97442.41;;;16.21;44.79
53900;BME280;40509;32.858;-116.858;2023-02-22T15:24:31;97433.91;;;16.18;44.50
53900;BME280;40509;32.858;-116.858;2023-02-22T15:27:25;97443.50;;;16.18;44.75
53900;BME280;40509;32.858;-116.858;2023-02-22T15:29:59;97449.69;;;16.17;44.98
53900;BME280;40509;32.858;-116.858;2023-02-22T15:32:37;97464.19;;;16.19;44.67
53900;BME280;40509;32.858;-116.858;2023-02-22T15:37:39;97479.81;;;16.19;44.82
53900;BME280;40509;32.858;-116.858;2023-02-22T15:40:10;97474.59;;;16.19;44.53